Time;durP1;ratioP1;P1;durP2;ratioP2;P2;SDS_P1;SDS_P2;PMS_P1;PMS_P2;Temp;Humidity;BMP_temperature;BMP_pressure;BME280_temperature;BME280_humidity;BME280_pressure;Samples;Min_cycle;Max_cycle;Signal;HPM_P1;HPM_P2
2022/07/06 00:00:17;;;;;;;6.43;3.00;;;18.10;99.90;;;;;;5022417;28;20486;-71
2022/07/06 00:02:44;;;;;;;4.80;3.03;;;18.10;99.90;;;;;;5017914;28;20211;-71
2022/07/06 00:05:10;;;;;;;3.00;2.50;;;18.10;99.90;;;;;;5019141;28;20571;-71
2022/07/06 00:07:37;;;;;;;5.13;2.80;;;18.00;99.90;;;;;;5018728;28;20659;-71
2022/07/06 00:10:04;;;;;;;4.07;2.80;;;18.00;99.90;;;;;;5015303;28;20193;-72
2022/07/06 00:12:31;;;;;;;4.97;2.87;;;17.90;99.90;;;;;;5019432;28;20197;-71
2022/07/06 00:14:58;;;;;;;6.07;2.83;;;17.90;99.90;;;;;;5016121;28;20227;-71
2022/07/06 00:17:24;;;;;;;5.00;2.40;;;17.90;99.90;;;;;;5018588;28;20229;-73
2022/07/06 00:19:51;;;;;;;3.27;2.60;;;17.80;99.90;;;;;;5021186;28;20242;-71
2022/07/06 00:22:18;;;;;;;8.03;3.13;;;17.80;99.90;;;;;;5015835;28;20196;-72
2022/07/06 00:24:44;;;;;;;5.13;2.87;;;17.70;99.90;;;;;;5015466;28;20350;-71
2022/07/06 00:27:11;;;;;;;4.13;2.80;;;17.70;99.90;;;;;;5020775;28;20259;-71
2022/07/06 00:29:38;;;;;;;4.17;2.70;;;17.60;99.90;;;;;;5018155;28;20527;-72
2022/07/06 00:32:05;;;;;;;3.40;2.30;;;17.50;99.90;;;;;;5020613;28;20196;-71
2022/07/06 00:34:31;;;;;;;6.23;2.90;;;17.60;99.90;;;;;;5019687;28;20196;-72
2022/07/06 00:36:58;;;;;;;3.97;2.43;;;17.40;99.90;;;;;;5019936;28;20712;-71
2022/07/06 00:39:28;;;;;;;3.27;2.50;;;17.40;99.90;;;;;;5024772;28;20203;-72
2022/07/06 00:41:56;;;;;;;3.87;2.70;;;17.30;99.90;;;;;;5025087;28;20274;-71
2022/07/06 00:44:23;;;;;;;5.90;2.50;;;17.40;99.90;;;;;;5021769;28;20648;-71
2022/07/06 00:46:50;;;;;;;5.97;2.60;;;17.40;99.90;;;;;;5023208;28;20227;-71
2022/07/06 00:52:03;;;;;;;3.47;2.30;;;17.30;99.90;;;;;;5025588;28;20201;-71
2022/07/06 00:54:32;;;;;;;8.47;2.70;;;17.20;99.90;;;;;;5021553;28;20193;-71
2022/07/06 00:56:58;;;;;;;2.90;2.40;;;17.20;99.90;;;;;;5024181;28;20447;-71
2022/07/06 00:59:27;;;;;;;5.23;2.07;;;17.10;99.90;;;;;;5024422;28;20196;-71
2022/07/06 01:01:53;;;;;;;10.03;2.30;;;17.10;99.90;;;;;;5018780;28;20627;-71
2022/07/06 01:04:20;;;;;;;2.87;2.10;;;17.00;99.90;;;;;;5021188;28;20686;-71
2022/07/06 01:06:47;;;;;;;2.37;2.10;;;17.00;99.90;;;;;;5017131;28;20216;-72
2022/07/06 01:09:14;;;;;;;3.90;2.37;;;17.00;99.90;;;;;;5023553;28;20192;-71
2022/07/06 01:11:41;;;;;;;4.40;2.13;;;16.90;99.90;;;;;;5022180;28;20554;-72
2022/07/06 01:14:08;;;;;;;3.70;2.00;;;16.80;99.90;;;;;;5020226;28;20203;-71
2022/07/06 01:16:35;;;;;;;4.63;2.13;;;16.80;99.90;;;;;;5023851;28;20786;-71
2022/07/06 01:19:02;;;;;;;3.17;2.07;;;16.90;99.90;;;;;;5021290;28;20207;-71
2022/07/06 01:24:04;;;;;;;3.30;2.53;;;16.80;99.90;;;;;;5381900;23;20225;-72
2022/07/06 01:26:31;;;;;;;2.37;2.10;;;16.80;99.90;;;;;;4962272;28;20692;-72
2022/07/06 01:28:58;;;;;;;4.70;1.87;;;16.80;99.90;;;;;;4963533;28;20253;-72
2022/07/06 01:31:27;;;;;;;3.87;2.37;;;16.80;99.90;;;;;;4967413;28;20209;-71
2022/07/06 01:33:56;;;;;;;4.13;2.00;;;16.60;99.90;;;;;;4969143;28;20610;-73
2022/07/06 01:36:23;;;;;;;3.53;1.80;;;16.50;99.90;;;;;;4969717;28;20612;-71
2022/07/06 01:38:54;;;;;;;3.77;1.80;;;16.40;99.90;;;;;;4964036;28;20201;-72
2022/07/06 01:41:21;;;;;;;3.30;1.83;;;16.40;99.90;;;;;;4970440;28;20221;-72
2022/07/06 01:43:48;;;;;;;4.50;2.00;;;16.30;99.90;;;;;;4964837;28;20209;-72
2022/07/06 01:46:15;;;;;;;2.80;1.73;;;16.30;99.90;;;;;;4967262;28;20194;-72
2022/07/06 01:48:42;;;;;;;2.37;1.97;;;16.40;99.90;;;;;;4970311;28;20681;-72
2022/07/06 01:51:09;;;;;;;2.93;1.80;;;16.40;99.90;;;;;;4967731;28;20205;-73
2022/07/06 01:53:36;;;;;;;4.13;2.40;;;16.30;99.90;;;;;;4965435;28;20217;-70
2022/07/06 01:56:03;;;;;;;5.30;1.90;;;16.40;99.90;;;;;;4963391;28;20202;-71
2022/07/06 01:58:29;;;;;;;2.53;1.80;;;16.40;99.90;;;;;;4968732;28;20204;-72
2022/07/06 02:00:56;;;;;;;3.93;2.00;;;16.30;99.90;;;;;;4964938;28;20221;-71
2022/07/06 02:03:23;;;;;;;2.17;1.90;;;16.20;99.90;;;;;;4970012;28;20221;-73
2022/07/06 02:05:49;;;;;;;3.83;1.93;;;16.20;99.90;;;;;;4965668;28;20205;-71
2022/07/06 02:08:16;;;;;;;4.60;1.93;;;16.30;99.90;;;;;;4968983;28;20193;-71
2022/07/06 02:10:43;;;;;;;2.60;1.60;;;16.30;99.90;;;;;;4969090;28;20233;-72
2022/07/06 02:13:09;;;;;;;3.37;1.80;;;16.30;99.90;;;;;;4967824;28;20220;-72
2022/07/06 02:15:36;;;;;;;3.20;1.70;;;16.20;99.90;;;;;;4967313;28;20260;-72
2022/07/06 02:18:03;;;;;;;2.43;1.90;;;16.10;99.90;;;;;;4966548;28;20205;-72
2022/07/06 02:20:30;;;;;;;2.60;1.87;;;16.10;99.90;;;;;;4972416;28;20205;-72
2022/07/06 02:22:56;;;;;;;2.87;1.80;;;16.00;99.90;;;;;;4965307;28;20257;-71
2022/07/06 02:25:23;;;;;;;2.83;2.00;;;16.00;99.90;;;;;;4968857;28;20205;-71
2022/07/06 02:27:49;;;;;;;2.40;1.93;;;15.90;99.90;;;;;;4968019;28;20606;-71
2022/07/06 02:30:16;;;;;;;4.10;1.90;;;16.00;99.90;;;;;;4970627;28;20248;-72
2022/07/06 02:32:43;;;;;;;2.17;1.80;;;15.90;99.90;;;;;;4966454;28;20200;-72
2022/07/06 02:35:10;;;;;;;2.47;1.70;;;15.90;99.90;;;;;;4969281;28;20229;-71
2022/07/06 02:37:36;;;;;;;2.87;1.80;;;15.80;99.90;;;;;;4967109;28;20213;-72
2022/07/06 02:40:03;;;;;;;2.30;1.80;;;15.70;99.90;;;;;;4964834;28;20201;-72
2022/07/06 02:42:30;;;;;;;3.13;1.83;;;15.50;99.90;;;;;;4966174;28;20226;-72
2022/07/06 02:44:57;;;;;;;3.13;2.13;;;15.40;99.90;;;;;;4968445;28;20205;-73
2022/07/06 02:47:23;;;;;;;3.00;2.13;;;15.50;99.90;;;;;;4967694;28;20200;-70
2022/07/06 02:49:50;;;;;;;2.23;1.90;;;15.50;99.90;;;;;;4970819;28;20227;-71
2022/07/06 02:52:16;;;;;;;2.27;1.90;;;15.50;99.90;;;;;;4968320;28;20198;-71
2022/07/06 02:54:43;;;;;;;6.93;2.20;;;15.50;99.90;;;;;;4963292;28;20228;-71
2022/07/06 02:57:10;;;;;;;5.17;2.10;;;15.50;99.90;;;;;;4965712;28;20200;-71
2022/07/06 02:59:37;;;;;;;3.07;2.40;;;15.40;99.90;;;;;;4967877;28;20208;-71
2022/07/06 03:02:04;;;;;;;6.43;2.60;;;15.30;99.90;;;;;;4962483;28;20216;-71
2022/07/06 03:04:31;;;;;;;2.70;1.80;;;15.30;99.90;;;;;;4967316;28;20214;-71
2022/07/06 03:06:57;;;;;;;3.30;2.43;;;15.30;99.90;;;;;;4964084;28;20198;-72
2022/07/06 03:09:24;;;;;;;3.30;2.20;;;15.30;99.90;;;;;;4965319;28;20196;-71
2022/07/06 03:11:51;;;;;;;4.67;2.47;;;15.30;99.90;;;;;;4964893;28;20205;-71
2022/07/06 03:14:18;;;;;;;5.83;2.50;;;15.20;99.90;;;;;;4968342;28;20226;-71
2022/07/06 03:16:45;;;;;;;6.10;2.80;;;15.30;99.90;;;;;;4967310;28;20210;-72
2022/07/06 03:19:17;;;;;;;3.77;2.40;;;15.20;99.90;;;;;;4966941;28;20671;-72
2022/07/06 03:21:43;;;;;;;4.83;2.40;;;15.20;99.90;;;;;;4968340;28;20231;-72
2022/07/06 03:24:10;;;;;;;6.83;2.50;;;15.10;99.90;;;;;;4964336;28;20246;-72
2022/07/06 03:26:37;;;;;;;4.50;2.60;;;15.10;99.90;;;;;;4960994;28;20682;-73
2022/07/06 03:29:03;;;;;;;2.83;2.40;;;15.10;99.90;;;;;;4966391;28;20191;-72
2022/07/06 03:31:30;;;;;;;5.00;2.77;;;15.00;99.90;;;;;;4962611;28;20204;-72
2022/07/06 03:33:57;;;;;;;3.57;2.67;;;15.00;99.90;;;;;;4963133;28;20313;-72
2022/07/06 03:36:24;;;;;;;4.53;2.90;;;15.00;99.90;;;;;;4968137;28;20201;-73
2022/07/06 03:38:51;;;;;;;9.63;3.63;;;15.00;99.90;;;;;;4968157;28;20217;-72
2022/07/06 03:41:17;;;;;;;8.20;3.20;;;15.00;99.90;;;;;;4968668;28;20221;-71
2022/07/06 03:43:44;;;;;;;7.17;2.90;;;14.90;99.90;;;;;;4966178;28;20640;-71
2022/07/06 03:46:11;;;;;;;6.50;2.70;;;15.00;99.90;;;;;;4962094;28;20200;-71
2022/07/06 03:48:37;;;;;;;7.07;2.90;;;15.00;99.90;;;;;;4965050;28;20197;-71
2022/07/06 03:51:04;;;;;;;8.60;2.87;;;15.00;99.90;;;;;;4966349;28;20214;-71
2022/07/06 03:53:31;;;;;;;5.80;2.93;;;15.00;99.90;;;;;;4969779;28;20223;-72
2022/07/06 03:58:43;;;;;;;5.23;2.90;;;15.10;99.90;;;;;;4962551;28;20595;-70
2022/07/06 04:01:10;;;;;;;5.83;2.80;;;15.10;99.90;;;;;;4960709;28;20252;-70
2022/07/06 04:03:36;;;;;;;5.07;3.37;;;15.00;99.90;;;;;;4968089;28;20217;-70
2022/07/06 04:06:03;;;;;;;3.77;3.10;;;15.10;99.90;;;;;;4964873;28;20208;-72
2022/07/06 04:08:30;;;;;;;3.77;2.87;;;15.10;99.90;;;;;;4966136;28;20580;-71
2022/07/06 04:10:56;;;;;;;4.13;2.90;;;15.10;99.90;;;;;;4968011;28;20196;-72
2022/07/06 04:13:25;;;;;;;5.40;3.00;;;15.10;99.90;;;;;;4970175;28;20215;-69
2022/07/06 04:15:51;;;;;;;7.07;3.23;;;15.10;99.90;;;;;;4968759;28;20198;-72
2022/07/06 04:18:18;;;;;;;4.43;2.93;;;15.00;99.90;;;;;;4966791;28;20198;-71
2022/07/06 04:20:46;;;;;;;4.70;2.87;;;15.10;99.90;;;;;;4968583;28;20203;-72
2022/07/06 04:23:12;;;;;;;6.63;2.63;;;15.20;99.90;;;;;;4967325;28;20687;-71
2022/07/06 04:25:39;;;;;;;5.90;2.63;;;15.20;99.90;;;;;;4974233;28;20264;-72
2022/07/06 04:28:05;;;;;;;4.10;2.73;;;15.30;99.90;;;;;;4972717;28;20213;-71
2022/07/06 04:30:32;;;;;;;7.27;3.03;;;15.30;99.90;;;;;;4971120;28;20202;-71
2022/07/06 04:32:59;;;;;;;4.53;2.77;;;15.30;99.90;;;;;;4967763;28;20221;-72
2022/07/06 04:35:25;;;;;;;5.20;2.70;;;15.40;99.90;;;;;;4969432;28;20220;-71
2022/07/06 04:37:52;;;;;;;9.90;3.37;;;15.30;99.90;;;;;;4967854;28;20208;-71
2022/07/06 04:40:21;;;;;;;5.53;2.80;;;15.30;99.90;;;;;;4968654;28;20210;-73
2022/07/06 04:42:47;;;;;;;4.03;2.67;;;15.40;99.90;;;;;;4968453;28;20228;-71
2022/07/06 04:45:14;;;;;;;6.63;2.93;;;15.40;99.90;;;;;;4967936;28;20194;-71
2022/07/06 04:47:42;;;;;;;5.00;2.93;;;15.40;99.90;;;;;;4969689;28;20197;-71
2022/07/06 04:50:09;;;;;;;4.87;3.30;;;15.40;99.90;;;;;;4965254;28;20207;-71
2022/07/06 04:52:35;;;;;;;6.70;2.90;;;15.40;99.90;;;;;;4968939;28;20212;-71
2022/07/06 04:55:04;;;;;;;5.40;3.30;;;15.40;99.90;;;;;;4967343;28;20201;-71
2022/07/06 04:57:32;;;;;;;4.33;2.60;;;15.40;99.90;;;;;;4971252;28;20203;-71
2022/07/06 04:59:59;;;;;;;5.30;2.90;;;15.50;99.90;;;;;;4968689;28;20605;-71
2022/07/06 05:02:25;;;;;;;7.23;3.20;;;15.50;99.90;;;;;;4964307;28;20740;-71
2022/07/06 05:04:52;;;;;;;6.47;2.90;;;15.50;99.90;;;;;;4964350;28;20220;-70
2022/07/06 05:07:19;;;;;;;6.93;3.10;;;15.50;99.90;;;;;;4969467;28;20200;-71
2022/07/06 05:09:45;;;;;;;4.17;2.83;;;15.60;99.90;;;;;;4970214;28;20202;-71
2022/07/06 05:12:17;;;;;;;4.87;2.80;;;15.70;99.90;;;;;;4966500;28;20211;-71
2022/07/06 05:14:44;;;;;;;5.83;2.70;;;15.60;99.90;;;;;;4963988;28;20320;-70
2022/07/06 05:17:10;;;;;;;6.13;3.10;;;15.60;99.90;;;;;;4971446;28;20200;-71
2022/07/06 05:19:37;;;;;;;5.13;2.57;;;15.60;99.90;;;;;;4965537;28;20255;-70
2022/07/06 05:22:04;;;;;;;6.10;3.10;;;15.60;99.90;;;;;;4966694;28;20219;-72
2022/07/06 05:24:30;;;;;;;7.37;3.10;;;15.70;99.90;;;;;;4967821;28;20224;-72
2022/07/06 05:26:57;;;;;;;4.87;2.57;;;15.70;99.90;;;;;;4963282;28;20203;-73
2022/07/06 05:29:23;;;;;;;6.40;2.90;;;15.90;99.90;;;;;;4963782;28;20216;-71
2022/07/06 05:31:50;;;;;;;8.50;3.30;;;15.80;99.90;;;;;;4962234;28;20221;-74
2022/07/06 05:34:17;;;;;;;5.60;2.67;;;16.00;99.90;;;;;;4964684;28;20256;-72
2022/07/06 05:36:44;;;;;;;4.47;2.70;;;16.20;99.90;;;;;;4963542;28;20669;-69
2022/07/06 05:39:10;;;;;;;7.97;3.00;;;16.30;99.90;;;;;;4966567;28;20206;-72
2022/07/06 05:41:37;;;;;;;5.57;2.93;;;16.30;99.90;;;;;;4966544;28;20613;-71
2022/07/06 05:44:04;;;;;;;5.80;3.07;;;16.20;99.90;;;;;;4965478;28;20212;-73
2022/07/06 05:46:30;;;;;;;5.53;3.03;;;16.20;99.90;;;;;;4970504;28;20204;-72
2022/07/06 05:51:42;;;;;;;5.80;3.00;;;16.30;99.90;;;;;;4964339;28;20198;-71
2022/07/06 05:54:09;;;;;;;7.20;3.30;;;16.20;99.90;;;;;;4964736;28;20314;-72
2022/07/06 05:56:36;;;;;;;6.80;3.03;;;16.20;99.90;;;;;;4966247;28;20678;-69
2022/07/06 05:59:02;;;;;;;5.47;2.80;;;16.20;99.90;;;;;;4965394;28;20211;-70
2022/07/06 06:01:29;;;;;;;5.80;3.10;;;16.20;99.90;;;;;;4967307;28;20208;-70
2022/07/06 06:03:56;;;;;;;5.40;2.67;;;16.30;99.90;;;;;;4960752;28;20277;-73
2022/07/06 06:06:22;;;;;;;5.50;2.90;;;16.30;99.90;;;;;;4963139;28;20201;-71
2022/07/06 06:08:49;;;;;;;6.87;3.17;;;16.30;99.90;;;;;;4968324;28;20204;-71
2022/07/06 06:11:15;;;;;;;5.67;2.63;;;16.40;99.90;;;;;;4969396;28;20691;-72
2022/07/06 06:13:42;;;;;;;5.53;2.80;;;16.40;99.90;;;;;;4961074;28;20765;-71
2022/07/06 06:16:09;;;;;;;3.57;2.50;;;16.50;99.90;;;;;;4967602;28;20206;-73
2022/07/06 06:18:36;;;;;;;5.87;2.60;;;16.60;99.90;;;;;;4965219;28;20197;-71
2022/07/06 06:21:08;;;;;;;5.93;2.43;;;16.70;99.90;;;;;;4960568;28;20625;-72
2022/07/06 06:23:35;;;;;;;5.30;4.00;;;16.90;99.90;;;;;;4962714;28;20705;-72
2022/07/06 06:26:02;;;;;;;5.87;3.50;;;17.10;99.90;;;;;;4959872;28;20331;-73
2022/07/06 06:28:29;;;;;;;4.83;2.90;;;17.40;99.90;;;;;;4963281;28;20620;-74
2022/07/06 06:30:55;;;;;;;5.87;2.90;;;17.40;99.90;;;;;;4961749;28;20494;-73
2022/07/06 06:33:22;;;;;;;8.67;3.20;;;17.30;99.90;;;;;;4961878;28;20907;-73
2022/07/06 06:35:51;;;;;;;7.47;2.50;;;17.30;99.90;;;;;;4965965;28;20209;-73
2022/07/06 06:38:19;;;;;;;4.20;3.00;;;17.20;99.90;;;;;;4964005;28;20202;-73
2022/07/06 06:40:46;;;;;;;6.83;2.50;;;17.30;99.90;;;;;;4960562;28;20681;-73
2022/07/06 06:43:13;;;;;;;4.47;2.60;;;17.40;99.90;;;;;;4959653;28;20284;-73
2022/07/06 06:45:40;;;;;;;5.13;2.40;;;17.70;99.90;;;;;;4961038;28;20220;-74
2022/07/06 06:48:07;;;;;;;4.47;2.23;;;17.90;99.90;;;;;;4961955;28;20190;-71
2022/07/06 06:50:42;;;;;;;4.00;2.40;;;17.80;99.90;;;;;;4955631;28;20457;-72
2022/07/06 06:53:08;;;;;;;6.50;2.53;;;17.70;99.90;;;;;;4963031;28;20717;-73
2022/07/06 06:55:35;;;;;;;2.27;1.97;;;17.70;99.90;;;;;;4964064;28;20212;-74
2022/07/06 06:58:02;;;;;;;3.60;2.60;;;17.80;99.90;;;;;;4963318;28;20201;-71
2022/07/06 07:00:28;;;;;;;4.70;1.90;;;17.90;99.90;;;;;;4965910;28;21007;-75
2022/07/06 07:02:55;;;;;;;3.30;2.37;;;18.00;99.90;;;;;;4958278;28;20236;-75
2022/07/06 07:05:22;;;;;;;2.50;1.70;;;18.10;99.90;;;;;;4959691;28;20198;-75
2022/07/06 07:07:48;;;;;;;4.97;2.50;;;18.00;99.90;;;;;;4961630;28;20613;-73
2022/07/06 07:10:15;;;;;;;3.17;1.90;;;18.20;99.90;;;;;;4964613;28;20200;-73
2022/07/06 07:12:46;;;;;;;5.00;2.57;;;18.60;99.90;;;;;;4961926;28;20543;-73
2022/07/06 07:15:14;;;;;;;4.80;2.33;;;18.90;99.90;;;;;;4961460;28;20209;-75
2022/07/06 07:17:41;;;;;;;5.07;2.20;;;18.80;99.90;;;;;;4961253;28;20202;-75
2022/07/06 07:20:08;;;;;;;6.23;2.27;;;18.80;99.90;;;;;;4958788;28;20198;-73
2022/07/06 07:22:35;;;;;;;6.57;2.30;;;18.90;99.90;;;;;;4960216;28;20217;-74
2022/07/06 07:25:02;;;;;;;5.37;2.50;;;19.00;99.90;;;;;;4958599;28;20206;-74
2022/07/06 07:27:29;;;;;;;3.87;2.00;;;19.30;99.90;;;;;;4959979;28;20201;-74
2022/07/06 07:29:55;;;;;;;4.30;1.70;;;19.60;99.90;;;;;;4964529;28;20209;-74
2022/07/06 07:32:22;;;;;;;4.83;2.10;;;19.60;99.90;;;;;;4957650;28;20289;-71
2022/07/06 07:34:49;;;;;;;2.67;1.77;;;19.70;99.90;;;;;;4957614;28;20240;-74
2022/07/06 07:37:16;;;;;;;3.67;1.80;;;19.70;99.90;;;;;;4956844;28;20198;-74
2022/07/06 07:39:42;;;;;;;2.20;1.67;;;19.50;99.90;;;;;;4962461;28;20197;-73
2022/07/06 07:42:09;;;;;;;4.17;1.97;;;19.20;99.90;;;;;;4955730;28;20310;-73
2022/07/06 07:44:43;;;;;;;4.67;1.77;;;19.30;99.90;;;;;;4959788;28;20580;-74
2022/07/06 07:47:09;;;;;;;3.93;2.00;;;19.30;99.90;;;;;;4962882;28;20204;-72
2022/07/06 07:49:36;;;;;;;2.77;1.83;;;19.20;99.90;;;;;;4963821;28;20202;-73
2022/07/06 07:52:03;;;;;;;7.77;2.07;;;19.50;99.90;;;;;;4959315;28;20256;-73
2022/07/06 07:54:30;;;;;;;2.90;1.70;;;19.70;99.90;;;;;;4954775;28;20269;-73
2022/07/06 07:56:56;;;;;;;4.43;1.80;;;19.50;99.90;;;;;;4957609;28;20247;-73
2022/07/06 07:59:23;;;;;;;2.10;1.87;;;19.70;99.90;;;;;;4959251;28;20948;-72
2022/07/06 08:01:50;;;;;;;3.40;1.90;;;19.90;99.90;;;;;;4962087;28;20201;-75
2022/07/06 08:04:17;;;;;;;2.67;2.10;;;19.90;99.90;;;;;;4966868;28;20313;-73
2022/07/06 08:06:43;;;;;;;2.00;1.80;;;19.60;99.90;;;;;;4960927;28;20198;-72
2022/07/06 08:09:10;;;;;;;2.23;1.80;;;19.70;99.90;;;;;;4960753;28;20220;-73
2022/07/06 08:11:37;;;;;;;3.30;1.83;;;19.90;99.90;;;;;;4959050;28;20213;-73
2022/07/06 08:14:04;;;;;;;3.37;2.00;;;19.90;99.90;;;;;;4961095;28;20229;-75
2022/07/06 08:16:31;;;;;;;6.37;1.83;;;19.80;99.90;;;;;;4960321;28;20565;-74
2022/07/06 08:18:58;;;;;;;3.20;2.00;;;19.70;99.90;;;;;;4958092;28;20257;-73
2022/07/06 08:21:25;;;;;;;5.00;1.83;;;19.80;99.90;;;;;;4960429;28;20261;-74
2022/07/06 08:23:54;;;;;;;3.17;1.80;;;20.00;99.90;;;;;;4969157;28;20253;-73
2022/07/06 08:26:22;;;;;;;2.60;1.97;;;19.60;99.90;;;;;;4959576;28;20201;-73
2022/07/06 08:28:48;;;;;;;2.73;1.80;;;19.50;99.90;;;;;;4959951;28;20210;-74
2022/07/06 08:31:15;;;;;;;3.10;1.80;;;19.50;99.90;;;;;;4958110;28;20202;-73
2022/07/06 08:34:03;;;;;;;2.90;2.10;;;19.70;99.90;;;;;;4962105;28;20217;-72
2022/07/06 08:36:30;;;;;;;3.00;1.50;;;19.90;99.90;;;;;;4959622;28;20206;-74
2022/07/06 08:38:56;;;;;;;3.53;1.67;;;19.90;99.90;;;;;;4964129;28;20198;-74
2022/07/06 08:41:25;;;;;;;4.70;1.70;;;20.00;99.90;;;;;;4956882;28;20216;-73
2022/07/06 08:43:53;;;;;;;4.37;1.60;;;19.70;99.90;;;;;;4962431;28;20237;-73
2022/07/06 08:46:20;;;;;;;2.60;1.80;;;19.50;99.90;;;;;;4958719;28;20281;-74
2022/07/06 08:48:48;;;;;;;1.63;1.43;;;19.60;99.90;;;;;;4961094;28;20197;-74
2022/07/06 08:51:15;;;;;;;3.50;1.70;;;19.70;99.90;;;;;;4958324;28;20190;-74
2022/07/06 08:53:42;;;;;;;1.43;1.33;;;19.80;99.90;;;;;;4964257;28;20494;-73
2022/07/06 08:56:09;;;;;;;1.97;1.60;;;19.70;99.90;;;;;;4958497;28;20202;-74
2022/07/06 08:58:36;;;;;;;2.67;1.63;;;19.70;99.90;;;;;;4966849;28;20276;-72
2022/07/06 09:01:03;;;;;;;4.77;1.90;;;19.80;99.90;;;;;;4960082;28;20198;-74
2022/07/06 09:03:30;;;;;;;1.83;1.60;;;20.00;99.90;;;;;;4965849;28;20615;-73
2022/07/06 09:06:01;;;;;;;3.90;2.13;;;20.10;99.90;;;;;;4966094;28;20566;-74
2022/07/06 09:08:29;;;;;;;3.37;1.77;;;20.10;99.90;;;;;;4963970;28;20701;-73
2022/07/06 09:10:56;;;;;;;5.53;2.07;;;20.20;99.90;;;;;;4960264;28;20206;-75
2022/07/06 09:13:23;;;;;;;2.40;2.20;;;20.20;99.90;;;;;;4961151;28;20228;-75
2022/07/06 09:15:50;;;;;;;4.33;2.57;;;20.30;99.90;;;;;;4966484;28;20679;-72
2022/07/06 09:18:37;;;;;;;3.30;2.57;;;20.40;99.90;;;;;;4963809;28;20219;-74
2022/07/06 09:21:05;;;;;;;4.87;2.93;;;20.50;99.90;;;;;;4968469;28;20658;-74
2022/07/06 09:23:32;;;;;;;6.23;3.00;;;20.60;99.90;;;;;;4967819;28;20226;-73
2022/07/06 09:26:07;;;;;;;3.53;2.90;;;20.60;99.90;;;;;;4962579;28;20218;-74
2022/07/06 09:28:42;;;;;;;3.63;2.60;;;20.60;99.90;;;;;;4960968;28;20212;-73
2022/07/06 09:31:09;;;;;;;4.27;3.20;;;20.90;99.90;;;;;;4964293;28;20245;-74
2022/07/06 09:34:05;;;;;;;4.37;3.40;;;21.00;99.90;;;;;;4964836;28;20228;-72
2022/07/06 09:36:45;;;;;;;6.43;3.30;;;20.70;99.90;;;;;;4968683;28;20673;-74
2022/07/06 09:39:19;;;;;;;4.70;3.47;;;20.90;99.90;;;;;;4964473;28;20194;-73
2022/07/06 09:41:47;;;;;;;4.07;3.40;;;20.80;99.90;;;;;;4981326;28;20202;-72
2022/07/06 09:44:20;;;;;;;3.40;3.10;;;21.00;99.90;;;;;;4965994;28;20577;-74
2022/07/06 09:46:48;;;;;;;3.97;3.20;;;21.10;99.90;;;;;;4965040;28;20221;-72
2022/07/06 09:49:19;;;;;;;3.30;2.88;;;21.20;99.90;;;;;;4966110;28;20229;-73
2022/07/06 09:51:47;;;;;;;3.87;2.77;;;21.50;99.90;;;;;;4966327;28;20198;-75
2022/07/06 09:54:15;;;;;;;3.15;2.85;;;21.50;99.90;;;;;;4966641;28;20213;-73
2022/07/06 09:56:44;;;;;;;3.70;2.95;;;21.40;99.90;;;;;;4973169;28;20205;-73
2022/07/06 09:59:11;;;;;;;4.20;2.87;;;21.30;99.90;;;;;;4970915;28;20657;-73
2022/07/06 10:01:39;;;;;;;5.67;2.77;;;21.00;99.90;;;;;;4956960;28;20203;-74
2022/07/06 10:04:07;;;;;;;3.23;2.70;;;21.00;99.90;;;;;;4960470;28;20222;-73
2022/07/06 10:06:34;;;;;;;4.30;2.90;;;20.80;99.90;;;;;;4966793;28;20236;-73
2022/07/06 10:09:02;;;;;;;3.80;2.57;;;20.90;99.90;;;;;;4971464;28;20285;-71
2022/07/06 10:11:29;;;;;;;2.60;2.40;;;20.90;99.90;;;;;;4973068;28;20202;-72
2022/07/06 10:13:57;;;;;;;2.30;2.10;;;21.10;99.90;;;;;;4972353;28;20229;-72
2022/07/06 10:16:25;;;;;;;5.60;2.50;;;20.90;99.90;;;;;;4978321;28;20208;-71
2022/07/06 10:18:55;;;;;;;2.73;2.33;;;21.00;99.90;;;;;;4976151;28;20235;-72
2022/07/06 10:21:22;;;;;;;3.28;2.30;;;21.00;99.90;;;;;;4975390;28;20661;-73
2022/07/06 10:23:50;;;;;;;3.55;2.30;;;21.00;99.90;;;;;;4976122;28;20229;-73
2022/07/06 10:26:18;;;;;;;4.43;2.50;;;21.30;99.90;;;;;;4972414;28;20209;-71
2022/07/06 10:28:46;;;;;;;4.45;2.60;;;21.50;99.90;;;;;;4976389;28;20262;-74
2022/07/06 10:31:15;;;;;;;3.78;2.50;;;21.50;99.90;;;;;;4970787;28;20193;-73
2022/07/06 10:33:47;;;;;;;3.35;2.03;;;21.70;99.90;;;;;;4968153;28;20220;-73
2022/07/06 10:36:16;;;;;;;2.20;2.00;;;21.60;99.90;;;;;;4965939;28;20518;-71
2022/07/06 10:38:49;;;;;;;3.85;1.90;;;21.20;99.90;;;;;;4960553;28;20205;-73
2022/07/06 10:41:17;;;;;;;2.47;2.00;;;21.30;99.90;;;;;;4962982;28;20214;-73
2022/07/06 10:43:45;;;;;;;2.55;1.95;;;21.60;99.90;;;;;;4957174;28;20233;-74
2022/07/06 10:46:20;;;;;;;3.33;1.63;;;21.60;99.90;;;;;;4961688;28;20218;-72
2022/07/06 10:48:48;;;;;;;2.38;2.03;;;21.50;99.90;;;;;;4958168;28;20193;-73
2022/07/06 10:51:26;;;;;;;1.98;1.85;;;21.60;99.90;;;;;;4961341;28;20650;-73
2022/07/06 10:54:03;;;;;;;3.10;1.83;;;21.70;99.90;;;;;;4972836;28;20328;-71
2022/07/06 10:56:36;;;;;;;2.95;2.13;;;21.70;99.90;;;;;;4958855;28;20208;-74
2022/07/06 10:59:11;;;;;;;2.35;1.63;;;21.80;99.90;;;;;;4975588;28;20194;-74
2022/07/06 11:01:38;;;;;;;2.75;1.60;;;22.00;99.90;;;;;;4955298;28;20669;-76
2022/07/06 11:04:14;;;;;;;2.45;1.60;;;22.30;99.90;;;;;;4978555;28;20243;-75
2022/07/06 11:06:41;;;;;;;2.20;1.60;;;22.50;99.90;;;;;;4966043;28;20660;-75
2022/07/06 11:09:10;;;;;;;3.92;1.70;;;22.70;99.90;;;;;;4965500;28;20678;-74
2022/07/06 11:11:36;;;;;;;2.78;1.80;;;22.40;99.90;;;;;;4967039;28;20202;-74
2022/07/06 11:14:13;;;;;;;2.08;1.70;;;22.70;99.90;;;;;;4965234;28;20229;-74
2022/07/06 11:16:48;;;;;;;2.90;1.40;;;22.70;99.90;;;;;;4964463;28;20213;-73
2022/07/06 11:19:16;;;;;;;3.92;2.08;;;22.70;99.90;;;;;;4962425;28;20204;-75
2022/07/06 11:21:43;;;;;;;2.15;1.55;;;22.90;99.90;;;;;;4961840;28;20617;-73
2022/07/06 11:24:15;;;;;;;3.63;1.52;;;23.20;99.90;;;;;;4957780;28;20661;-74
2022/07/06 11:26:46;;;;;;;5.07;1.60;;;23.30;99.90;;;;;;4956728;28;20205;-70
2022/07/06 11:29:13;;;;;;;2.72;1.60;;;23.20;99.90;;;;;;4966163;28;20592;-74
2022/07/06 11:31:43;;;;;;;2.95;1.60;;;22.90;99.90;;;;;;4960177;28;20197;-74
2022/07/06 11:34:13;;;;;;;2.60;1.65;;;22.10;99.90;;;;;;4955945;28;20229;-72
2022/07/06 11:36:41;;;;;;;2.47;1.55;;;22.00;99.90;;;;;;4960813;28;20216;-74
2022/07/06 11:39:12;;;;;;;2.97;1.73;;;22.30;99.90;;;;;;4961527;28;20191;-75
2022/07/06 11:41:39;;;;;;;2.03;1.60;;;22.70;99.90;;;;;;4963116;28;20206;-71
2022/07/06 11:44:05;;;;;;;4.60;1.40;;;22.90;99.90;;;;;;4964080;28;20217;-73
2022/07/06 11:46:35;;;;;;;4.28;1.85;;;22.50;99.90;;;;;;4963577;28;20194;-73
2022/07/06 11:49:05;;;;;;;2.17;1.73;;;22.40;99.90;;;;;;4962612;28;20276;-73
2022/07/06 11:51:37;;;;;;;1.90;1.80;;;22.30;99.90;;;;;;4961544;28;20197;-73
2022/07/06 11:54:25;;;;;;;2.97;1.95;;;22.10;99.90;;;;;;4959152;28;20710;-71
2022/07/06 11:56:58;;;;;;;3.60;1.90;;;22.30;99.90;;;;;;4955042;28;20209;-73
2022/07/06 11:59:27;;;;;;;3.92;1.70;;;22.40;99.90;;;;;;4955715;28;20238;-73
2022/07/06 12:02:05;;;;;;;2.17;1.85;;;22.60;99.90;;;;;;4959847;28;21566;-74
2022/07/06 12:04:39;;;;;;;2.38;1.80;;;22.50;99.90;;;;;;4956656;28;20317;-73
2022/07/06 12:07:12;;;;;;;1.83;1.73;;;22.80;99.90;;;;;;4958927;28;20638;-73
2022/07/06 12:09:41;;;;;;;2.35;1.80;;;23.20;99.90;;;;;;4958749;28;20244;-73
2022/07/06 12:12:09;;;;;;;2.22;1.90;;;23.50;99.90;;;;;;4958696;28;20194;-73
2022/07/06 12:14:37;;;;;;;3.47;1.95;;;23.90;99.90;;;;;;4960626;28;20244;-72
2022/07/06 12:17:07;;;;;;;2.92;2.00;;;23.50;99.90;;;;;;4956775;28;20670;-72
2022/07/06 12:19:35;;;;;;;3.70;2.05;;;23.00;99.90;;;;;;4958941;28;20635;-75
2022/07/06 12:22:02;;;;;;;2.45;2.03;;;22.80;99.90;;;;;;4959154;28;20213;-72
2022/07/06 12:24:32;;;;;;;2.40;2.20;;;22.70;99.90;;;;;;4954890;28;20230;-69
2022/07/06 12:27:12;;;;;;;3.15;2.17;;;22.70;99.90;;;;;;4960202;28;20199;-75
2022/07/06 12:29:39;;;;;;;4.68;2.03;;;22.60;99.90;;;;;;4974430;28;20190;-75
2022/07/06 12:32:06;;;;;;;5.05;2.00;;;22.70;99.90;;;;;;4964436;28;20628;-73
2022/07/06 12:34:35;;;;;;;2.00;1.80;;;22.60;99.90;;;;;;4955611;28;20633;-75
2022/07/06 12:37:07;;;;;;;3.28;2.15;;;22.80;99.90;;;;;;4962145;28;20206;-73
2022/07/06 12:39:42;;;;;;;3.15;1.83;;;23.20;99.90;;;;;;4959271;28;20280;-72
2022/07/06 12:42:09;;;;;;;3.67;1.90;;;23.60;99.90;;;;;;4963543;28;20189;-74
2022/07/06 12:44:46;;;;;;;5.30;2.15;;;23.90;99.90;;;;;;4963884;28;20260;-73
2022/07/06 12:47:16;;;;;;;3.00;1.83;;;23.70;99.90;;;;;;4967808;28;20217;-74
2022/07/06 12:49:42;;;;;;;2.75;2.00;;;23.60;99.90;;;;;;4966137;28;20194;-72
2022/07/06 12:52:16;;;;;;;2.60;2.00;;;23.50;99.90;;;;;;4964344;28;20201;-73
2022/07/06 12:54:45;;;;;;;2.38;2.03;;;22.90;99.90;;;;;;4966498;28;20221;-73
2022/07/06 12:57:21;;;;;;;5.30;1.90;;;23.00;99.90;;;;;;4961756;28;20206;-73
2022/07/06 12:59:49;;;;;;;2.47;1.90;;;23.20;99.90;;;;;;4964245;28;20201;-74
2022/07/06 13:02:36;;;;;;;2.10;1.65;;;23.50;99.90;;;;;;4962498;28;20201;-73